createdAt,value
2023-05-16T00:00:13.523Z,2.53
2023-05-16T00:02:40.545Z,2.50
2023-05-16T00:05:16.349Z,2.65
2023-05-16T00:07:43.782Z,3.72
2023-05-16T00:10:10.711Z,2.85
2023-05-16T00:12:37.559Z,3.10
2023-05-16T00:15:05.354Z,3.28
2023-05-16T00:17:32.155Z,3.67
2023-05-16T00:19:58.785Z,3.42
2023-05-16T00:22:25.510Z,2.50
2023-05-16T00:24:51.809Z,2.78
2023-05-16T00:27:18.116Z,2.85
2023-05-16T00:29:44.441Z,2.70
2023-05-16T00:32:11.172Z,2.63
2023-05-16T00:34:37.693Z,2.35
2023-05-16T00:37:04.158Z,3.55
2023-05-16T00:39:30.963Z,3.38
2023-05-16T00:41:57.717Z,2.97
2023-05-16T00:44:24.012Z,2.83
2023-05-16T00:46:50.392Z,2.92
2023-05-16T00:49:16.769Z,2.83
2023-05-16T00:51:43.190Z,3.75
2023-05-16T00:54:10.542Z,2.65
2023-05-16T00:56:45.515Z,2.35
2023-05-16T00:59:11.832Z,2.75
2023-05-16T01:01:38.561Z,2.30
2023-05-16T01:04:05.956Z,2.97
2023-05-16T01:06:33.629Z,4.50
2023-05-16T01:09:00.319Z,2.50
2023-05-16T01:11:32.992Z,2.95
2023-05-16T01:13:59.321Z,3.33
2023-05-16T01:16:36.255Z,3.28
2023-05-16T01:19:28.524Z,2.40
2023-05-16T01:22:16.252Z,2.13
2023-05-16T01:24:52.040Z,2.25
2023-05-16T01:27:18.630Z,2.58
2023-05-16T01:29:44.906Z,2.67
2023-05-16T01:32:11.221Z,2.80
2023-05-16T01:34:37.633Z,2.35
2023-05-16T01:37:09.628Z,2.17
2023-05-16T01:39:44.599Z,2.78
2023-05-16T01:42:14.745Z,2.55
2023-05-16T01:44:52.964Z,1.92
2023-05-16T01:47:20.745Z,2.95
2023-05-16T01:50:05.616Z,2.15
2023-05-16T01:52:41.124Z,2.00
2023-05-16T01:55:10.996Z,2.55
2023-05-16T01:57:37.621Z,1.85
2023-05-16T02:00:04.703Z,2.58
2023-05-16T02:02:31.490Z,2.33
2023-05-16T02:04:57.864Z,2.30
2023-05-16T02:07:24.209Z,2.67
2023-05-16T02:09:50.709Z,2.60
2023-05-16T02:12:17.036Z,2.42
2023-05-16T02:14:43.340Z,2.63
2023-05-16T02:17:09.716Z,1.73
2023-05-16T02:19:36.275Z,2.33
2023-05-16T02:22:02.583Z,3.95
2023-05-16T02:24:28.954Z,3.17
2023-05-16T02:26:55.252Z,2.08
2023-05-16T02:29:21.545Z,2.00
2023-05-16T02:31:48.245Z,2.92
2023-05-16T02:34:15.403Z,2.20
2023-05-16T02:36:41.765Z,4.47
2023-05-16T02:39:10.097Z,2.45
2023-05-16T02:41:36.534Z,1.90
2023-05-16T02:44:02.839Z,1.67
2023-05-16T02:46:33.382Z,1.90
2023-05-16T02:48:59.787Z,1.60
2023-05-16T02:51:27.481Z,2.80
2023-05-16T02:53:54.319Z,3.05
2023-05-16T02:56:21.741Z,2.63
2023-05-16T02:58:49.350Z,3.15
2023-05-16T03:01:16.587Z,2.63
2023-05-16T03:03:43.041Z,1.75
2023-05-16T03:06:09.681Z,2.28
2023-05-16T03:08:36.114Z,2.25
2023-05-16T03:11:02.477Z,3.03
2023-05-16T03:13:30.248Z,2.00
2023-05-16T03:15:56.621Z,2.35
2023-05-16T03:18:22.953Z,2.53
2023-05-16T03:20:49.270Z,2.92
2023-05-16T03:23:15.634Z,2.67
2023-05-16T03:25:43.189Z,2.33
2023-05-16T03:28:09.751Z,2.47
2023-05-16T03:30:36.143Z,3.22
2023-05-16T03:33:03.834Z,2.53
2023-05-16T03:35:33.434Z,2.38
2023-05-16T03:37:59.806Z,2.22
2023-05-16T03:40:26.172Z,2.95
2023-05-16T03:42:52.514Z,2.20
2023-05-16T03:45:18.960Z,3.28
2023-05-16T03:47:45.392Z,1.90
2023-05-16T03:50:11.811Z,2.40
2023-05-16T03:52:38.309Z,2.22
2023-05-16T03:55:05.122Z,1.55
2023-05-16T03:57:31.762Z,2.35
2023-05-16T03:59:58.132Z,2.17
2023-05-16T04:02:24.560Z,1.95
2023-05-16T04:04:51.154Z,2.58
2023-05-16T04:07:17.451Z,2.20
2023-05-16T04:09:43.761Z,3.15
2023-05-16T04:12:10.098Z,1.70
2023-05-16T04:14:36.396Z,2.63
2023-05-16T04:17:02.728Z,1.88
2023-05-16T04:19:29.055Z,1.98
2023-05-16T04:21:55.513Z,1.98
2023-05-16T04:24:26.277Z,1.58
2023-05-16T04:26:52.649Z,2.70
2023-05-16T04:29:19.135Z,1.48
2023-05-16T04:31:45.559Z,1.83
2023-05-16T04:34:12.186Z,2.63
2023-05-16T04:36:38.578Z,1.95
2023-05-16T04:39:04.877Z,2.20
2023-05-16T04:41:31.341Z,3.15
2023-05-16T04:43:57.629Z,2.05
2023-05-16T04:46:24.139Z,2.10
2023-05-16T04:48:50.514Z,2.17
2023-05-16T04:51:16.844Z,2.10
2023-05-16T04:53:43.171Z,1.40
2023-05-16T04:56:09.458Z,2.63
2023-05-16T04:58:35.805Z,2.25
2023-05-16T05:01:02.089Z,1.60
2023-05-16T05:03:28.389Z,2.95
2023-05-16T05:05:54.690Z,4.50
2023-05-16T05:08:21.376Z,2.80
2023-05-16T05:10:47.794Z,1.90
2023-05-16T05:13:14.179Z,2.03
2023-05-16T05:15:40.681Z,3.85
2023-05-16T05:18:07.084Z,3.33
2023-05-16T05:20:33.552Z,2.92
2023-05-16T05:22:59.860Z,3.53
2023-05-16T05:25:26.574Z,3.42
2023-05-16T05:27:53.125Z,4.53
2023-05-16T05:30:19.427Z,6.38
2023-05-16T05:32:45.860Z,6.05
2023-05-16T05:35:12.431Z,4.47
2023-05-16T05:37:38.776Z,3.55
2023-05-16T05:40:05.456Z,5.32
2023-05-16T05:42:31.772Z,4.43
2023-05-16T05:44:58.100Z,3.50
2023-05-16T05:47:24.535Z,2.88
2023-05-16T05:49:50.836Z,2.42
2023-05-16T05:52:17.148Z,2.03
2023-05-16T05:54:43.476Z,2.72
2023-05-16T05:57:09.798Z,2.53
2023-05-16T05:59:36.094Z,3.78
2023-05-16T06:02:02.418Z,3.08
2023-05-16T06:04:28.814Z,4.25
2023-05-16T06:06:55.330Z,3.20
2023-05-16T06:09:22.040Z,2.75
2023-05-16T06:11:48.425Z,2.75
2023-05-16T06:14:15.572Z,2.95
2023-05-16T06:16:42.223Z,3.22
2023-05-16T06:19:08.707Z,2.38
2023-05-16T06:21:35.298Z,2.75
2023-05-16T06:24:01.612Z,2.70
2023-05-16T06:26:27.943Z,3.28
2023-05-16T06:28:54.298Z,2.65
2023-05-16T06:31:20.613Z,2.92
2023-05-16T06:33:47.462Z,2.67
2023-05-16T06:36:13.746Z,3.15
2023-05-16T06:38:40.038Z,4.85
2023-05-16T06:41:06.336Z,2.95
2023-05-16T06:43:32.706Z,2.42
2023-05-16T06:45:59.110Z,2.45
2023-05-16T06:48:25.578Z,2.78
2023-05-16T06:50:52.169Z,3.33
2023-05-16T06:53:18.660Z,2.50
2023-05-16T06:55:45.163Z,2.63
2023-05-16T06:58:11.630Z,2.75
2023-05-16T07:00:38.028Z,2.83
2023-05-16T07:03:04.608Z,2.35
2023-05-16T07:05:31.219Z,2.78
2023-05-16T07:07:57.674Z,1.70
2023-05-16T07:10:24.066Z,3.05
2023-05-16T07:12:50.533Z,3.45
2023-05-16T07:15:16.970Z,2.47
2023-05-16T07:17:43.440Z,4.18
2023-05-16T07:20:13.478Z,3.38
2023-05-16T07:22:40.189Z,3.70
2023-05-16T07:25:06.909Z,3.42
2023-05-16T07:27:33.253Z,4.18
2023-05-16T07:29:59.604Z,3.20
2023-05-16T07:32:26.004Z,2.55
2023-05-16T07:34:52.416Z,3.85
2023-05-16T07:37:20.467Z,2.75
2023-05-16T07:39:46.814Z,2.80
2023-05-16T07:42:13.344Z,3.08
2023-05-16T07:44:39.722Z,2.92
2023-05-16T07:47:06.135Z,2.70
2023-05-16T07:49:32.553Z,2.78
2023-05-16T07:51:59.404Z,1.27
2023-05-16T07:54:25.908Z,2.13
2023-05-16T07:56:52.285Z,1.48
2023-05-16T07:59:18.697Z,2.13
2023-05-16T08:01:45.095Z,1.77
2023-05-16T08:04:11.439Z,2.00
2023-05-16T08:06:37.773Z,1.30
2023-05-16T08:09:04.137Z,1.80
2023-05-16T08:11:30.635Z,1.80
2023-05-16T08:13:56.991Z,1.45
2023-05-16T08:16:23.438Z,1.75
2023-05-16T08:18:50.078Z,2.22
2023-05-16T08:21:16.741Z,1.40
2023-05-16T08:23:43.384Z,1.58
2023-05-16T08:26:10.357Z,1.77
2023-05-16T08:28:36.724Z,2.78
2023-05-16T08:31:03.098Z,1.45
2023-05-16T08:33:29.526Z,1.35
2023-05-16T08:35:56.018Z,1.98
2023-05-16T08:38:22.390Z,1.77
2023-05-16T08:40:48.824Z,1.55
2023-05-16T08:43:15.279Z,1.77
2023-05-16T08:45:44.981Z,1.85
2023-05-16T08:48:12.092Z,1.40
2023-05-16T08:50:38.656Z,1.70
2023-05-16T08:53:07.278Z,1.90
2023-05-16T08:55:34.706Z,1.95
2023-05-16T08:58:01.847Z,2.60
2023-05-16T09:00:28.779Z,2.42
2023-05-16T09:02:55.442Z,2.35
2023-05-16T09:05:22.513Z,2.80
2023-05-16T09:07:48.866Z,1.73
2023-05-16T09:10:15.240Z,1.95
2023-05-16T09:12:42.294Z,2.22
2023-05-16T09:15:10.437Z,2.30
2023-05-16T09:17:39.787Z,2.35
2023-05-16T09:20:11.427Z,2.58
2023-05-16T09:22:38.101Z,2.45
2023-05-16T09:25:06.946Z,3.42
2023-05-16T09:27:35.341Z,2.38
2023-05-16T09:30:02.116Z,2.92
2023-05-16T09:32:28.553Z,2.35
2023-05-16T09:34:57.706Z,2.92
2023-05-16T09:37:24.122Z,2.28
2023-05-16T09:39:51.499Z,2.20
2023-05-16T09:42:18.758Z,1.88
2023-05-16T09:44:52.121Z,2.78
2023-05-16T09:47:19.077Z,2.83
2023-05-16T09:49:46.296Z,2.22
2023-05-16T09:52:13.878Z,3.50
2023-05-16T09:54:40.385Z,1.83
2023-05-16T09:57:07.015Z,2.58
2023-05-16T09:59:37.380Z,2.58
2023-05-16T10:02:04.998Z,2.38
2023-05-16T10:04:31.687Z,1.75
2023-05-16T10:06:59.601Z,2.50
2023-05-16T10:09:26.282Z,2.00
2023-05-16T10:11:53.609Z,2.28
2023-05-16T10:14:21.143Z,1.90
2023-05-16T10:16:49.013Z,2.53
2023-05-16T10:19:17.029Z,2.33
2023-05-16T10:21:46.404Z,2.88
2023-05-16T10:24:13.753Z,1.90
2023-05-16T10:26:40.105Z,2.28
2023-05-16T10:29:07.519Z,1.98
2023-05-16T10:31:34.030Z,2.30
2023-05-16T10:34:00.769Z,2.70
2023-05-16T10:36:27.220Z,2.20
2023-05-16T10:38:53.934Z,2.35
2023-05-16T10:41:21.909Z,2.65
2023-05-16T10:43:58.150Z,1.95
2023-05-16T10:46:25.266Z,2.20
2023-05-16T10:48:54.343Z,2.20
2023-05-16T10:51:37.915Z,2.30
2023-05-16T10:54:11.264Z,2.55
2023-05-16T10:56:37.674Z,2.20
2023-05-16T10:59:07.936Z,2.13
2023-05-16T11:01:35.169Z,2.22
2023-05-16T11:04:02.758Z,2.92
2023-05-16T11:06:34.011Z,2.55
2023-05-16T11:09:06.729Z,3.00
2023-05-16T11:11:38.847Z,2.50
2023-05-16T11:14:05.339Z,2.63
2023-05-16T11:16:31.756Z,2.05
2023-05-16T11:19:05.138Z,2.42
2023-05-16T11:21:50.477Z,2.17
2023-05-16T11:24:30.131Z,2.65
2023-05-16T11:26:57.549Z,2.45
2023-05-16T11:29:24.301Z,2.30
2023-05-16T11:31:50.787Z,2.22
2023-05-16T11:34:17.530Z,2.80
2023-05-16T11:36:44.770Z,2.50
2023-05-16T11:39:12.355Z,3.10
2023-05-16T11:41:38.904Z,2.55
2023-05-16T11:44:06.647Z,2.40
2023-05-16T11:46:33.687Z,2.92
2023-05-16T11:49:00.163Z,2.28
2023-05-16T11:51:26.651Z,2.30
2023-05-16T11:53:53.599Z,2.85
2023-05-16T11:56:21.617Z,2.78
2023-05-16T11:58:48.253Z,2.40
2023-05-16T12:01:14.933Z,2.72
2023-05-16T12:03:41.478Z,2.17
2023-05-16T12:06:10.893Z,2.13
2023-05-16T12:08:37.254Z,2.42
2023-05-16T12:11:03.602Z,2.33
2023-05-16T12:13:32.873Z,2.60
2023-05-16T12:15:59.372Z,2.08
2023-05-16T12:18:26.339Z,2.70
2023-05-16T12:20:53.112Z,3.88
2023-05-16T12:23:19.456Z,2.17
2023-05-16T12:25:46.825Z,2.22
2023-05-16T12:28:14.412Z,2.33
2023-05-16T12:30:42.078Z,2.63
2023-05-16T12:33:09.928Z,1.98
2023-05-16T12:35:38.176Z,2.55
2023-05-16T12:38:05.654Z,2.70
2023-05-16T12:40:32.053Z,2.83
2023-05-16T12:42:58.409Z,1.92
2023-05-16T12:45:27.292Z,2.80
2023-05-16T12:47:53.764Z,2.35
2023-05-16T12:50:20.411Z,2.67
2023-05-16T12:52:58.977Z,2.40
2023-05-16T12:55:26.133Z,2.15
2023-05-16T12:57:52.616Z,2.05
2023-05-16T13:00:19.950Z,1.90
2023-05-16T13:02:47.760Z,1.80
2023-05-16T13:05:14.675Z,3.28
2023-05-16T13:07:41.207Z,2.17
2023-05-16T13:10:11.161Z,2.13
2023-05-16T13:12:39.159Z,2.05
2023-05-16T13:15:07.465Z,1.60
2023-05-16T13:17:37.161Z,2.30
2023-05-16T13:20:10.523Z,1.77
2023-05-16T13:22:37.213Z,2.50
2023-05-16T13:25:04.661Z,2.20
2023-05-16T13:27:31.063Z,1.50
2023-05-16T13:29:58.368Z,1.85
2023-05-16T13:32:25.336Z,1.98
2023-05-16T13:34:51.856Z,2.10
2023-05-16T13:37:18.647Z,2.20
2023-05-16T13:39:45.010Z,2.05
2023-05-16T13:42:11.594Z,2.30
2023-05-16T13:44:38.019Z,2.30
2023-05-16T13:47:04.428Z,2.10
2023-05-16T13:49:30.809Z,2.08
2023-05-16T13:51:58.489Z,2.85
2023-05-16T13:54:24.843Z,1.90
2023-05-16T13:56:51.235Z,1.90
2023-05-16T13:59:32.021Z,2.88
2023-05-16T14:02:04.120Z,2.15
2023-05-16T14:04:30.593Z,2.05
2023-05-16T14:06:57.343Z,2.00
2023-05-16T14:09:23.768Z,2.33
2023-05-16T14:11:50.113Z,2.78
2023-05-16T14:14:16.487Z,2.17
2023-05-16T14:16:45.844Z,2.00
2023-05-16T14:19:13.867Z,1.80
2023-05-16T14:21:41.258Z,1.45
2023-05-16T14:24:08.017Z,1.95
2023-05-16T14:26:34.404Z,2.40
2023-05-16T14:29:00.806Z,1.50
2023-05-16T14:31:27.172Z,2.83
2023-05-16T14:33:53.610Z,1.88
2023-05-16T14:36:20.055Z,2.25
2023-05-16T14:38:46.408Z,1.60
2023-05-16T14:41:12.778Z,2.70
2023-05-16T14:43:39.179Z,2.38
2023-05-16T14:46:05.706Z,2.45
2023-05-16T14:48:33.180Z,2.20
2023-05-16T14:51:00.028Z,1.83
2023-05-16T14:53:26.692Z,2.92
2023-05-16T14:55:53.163Z,2.45
2023-05-16T14:58:19.560Z,2.50
2023-05-16T15:00:46.067Z,2.22
2023-05-16T15:03:14.347Z,2.50
2023-05-16T15:05:42.072Z,1.73
2023-05-16T15:08:08.437Z,2.00
2023-05-16T15:10:34.786Z,2.60
2023-05-16T15:13:01.212Z,2.42
2023-05-16T15:15:28.428Z,3.60
2023-05-16T15:17:54.899Z,2.40
2023-05-16T15:20:22.610Z,2.60
2023-05-16T15:22:49.235Z,2.60
2023-05-16T15:25:15.632Z,2.67
2023-05-16T15:27:43.739Z,3.25
2023-05-16T15:30:11.021Z,2.35
2023-05-16T15:32:37.357Z,2.00
2023-05-16T15:35:04.551Z,1.83
2023-05-16T15:37:31.025Z,1.10
2023-05-16T15:39:57.379Z,2.03
2023-05-16T15:42:23.815Z,1.55
2023-05-16T15:44:50.253Z,2.05
2023-05-16T15:47:16.732Z,2.78
2023-05-16T15:49:43.066Z,1.73
2023-05-16T15:52:09.443Z,1.83
2023-05-16T15:54:36.287Z,1.60
2023-05-16T15:57:02.956Z,2.75
2023-05-16T15:59:29.357Z,1.55
2023-05-16T16:01:55.892Z,1.63
2023-05-16T16:04:23.762Z,2.15
2023-05-16T16:06:50.421Z,1.98
2023-05-16T16:09:16.918Z,2.25
2023-05-16T16:11:43.397Z,1.42
2023-05-16T16:14:10.957Z,2.05
2023-05-16T16:16:39.547Z,1.50
2023-05-16T16:19:06.536Z,1.60
2023-05-16T16:21:33.195Z,1.55
2023-05-16T16:23:59.549Z,2.63
2023-05-16T16:26:26.524Z,1.83
2023-05-16T16:28:52.879Z,1.30
2023-05-16T16:31:19.337Z,1.60
2023-05-16T16:33:49.004Z,1.83
2023-05-16T16:36:16.229Z,3.17
2023-05-16T16:38:42.688Z,3.20
2023-05-16T16:41:09.377Z,1.20
2023-05-16T16:43:36.857Z,1.75
2023-05-16T16:46:03.238Z,1.40
2023-05-16T16:48:29.629Z,1.50
2023-05-16T16:50:56.713Z,1.60
2023-05-16T16:53:23.109Z,1.83
2023-05-16T16:55:49.439Z,2.08
2023-05-16T16:58:15.820Z,1.35
2023-05-16T17:00:42.172Z,1.80
2023-05-16T17:03:08.664Z,1.88
2023-05-16T17:05:35.236Z,1.25
2023-05-16T17:08:01.638Z,1.60
2023-05-16T17:10:28.160Z,3.08
2023-05-16T17:12:54.718Z,1.63
2023-05-16T17:15:21.231Z,1.60
2023-05-16T17:17:49.207Z,1.75
2023-05-16T17:20:15.980Z,1.77
2023-05-16T17:22:42.413Z,1.40
2023-05-16T17:25:09.784Z,1.42
2023-05-16T17:27:36.189Z,1.70
2023-05-16T17:30:02.659Z,1.75
2023-05-16T17:32:29.926Z,2.08
2023-05-16T17:34:56.814Z,2.08
2023-05-16T17:37:23.321Z,2.22
2023-05-16T17:39:49.909Z,1.70
2023-05-16T17:42:16.289Z,1.42
2023-05-16T17:44:42.963Z,1.45
2023-05-16T17:47:09.357Z,1.50
2023-05-16T17:49:36.045Z,1.35
2023-05-16T17:52:05.009Z,1.60
2023-05-16T17:54:32.186Z,1.85
2023-05-16T17:57:00.008Z,1.63
2023-05-16T17:59:30.003Z,1.50
2023-05-16T18:01:57.882Z,1.40
2023-05-16T18:04:24.569Z,1.95
2023-05-16T18:06:54.332Z,1.63
2023-05-16T18:09:20.865Z,1.60
2023-05-16T18:11:47.338Z,2.50
2023-05-16T18:14:14.128Z,1.58
2023-05-16T18:16:40.597Z,2.05
2023-05-16T18:19:08.761Z,1.65
2023-05-16T18:21:36.399Z,1.40
2023-05-16T18:24:03.051Z,2.60
2023-05-16T18:26:29.677Z,1.77
2023-05-16T18:28:56.495Z,1.42
2023-05-16T18:31:22.851Z,2.78
2023-05-16T18:33:49.868Z,1.90
2023-05-16T18:36:16.931Z,1.52
2023-05-16T18:38:43.484Z,1.95
2023-05-16T18:41:09.982Z,1.33
2023-05-16T18:43:36.765Z,2.10
2023-05-16T18:46:03.687Z,2.55
2023-05-16T18:48:30.230Z,2.70
2023-05-16T18:50:56.839Z,2.40
2023-05-16T18:53:23.449Z,1.73
2023-05-16T18:55:50.081Z,2.15
2023-05-16T18:58:16.545Z,1.35
2023-05-16T19:00:42.927Z,1.80
2023-05-16T19:03:09.884Z,2.60
2023-05-16T19:05:36.600Z,1.58
2023-05-16T19:08:03.222Z,1.92
2023-05-16T19:10:30.004Z,1.58
2023-05-16T19:12:56.783Z,1.60
2023-05-16T19:15:23.193Z,1.70
2023-05-16T19:17:49.749Z,2.25
2023-05-16T19:20:16.327Z,1.73
2023-05-16T19:22:42.725Z,1.92
2023-05-16T19:25:09.336Z,2.22
2023-05-16T19:27:35.845Z,2.65
2023-05-16T19:30:02.222Z,1.80
2023-05-16T19:32:28.736Z,4.03
2023-05-16T19:34:55.284Z,2.65
2023-05-16T19:37:21.955Z,2.13
2023-05-16T19:39:48.368Z,2.47
2023-05-16T19:42:15.037Z,1.80
2023-05-16T19:44:42.696Z,2.97
2023-05-16T19:47:09.096Z,1.77
2023-05-16T19:49:35.789Z,2.85
2023-05-16T19:52:02.997Z,2.20
2023-05-16T19:54:29.581Z,2.03
2023-05-16T19:56:56.134Z,5.03
2023-05-16T19:59:23.041Z,6.22
2023-05-16T20:01:49.464Z,4.15
2023-05-16T20:04:16.081Z,7.20
2023-05-16T20:06:42.555Z,4.72
2023-05-16T20:09:09.028Z,3.53
2023-05-16T20:11:35.574Z,7.68
2023-05-16T20:14:01.949Z,6.75
2023-05-16T20:16:28.313Z,4.15
2023-05-16T20:18:54.745Z,7.78
2023-05-16T20:21:21.166Z,6.47
2023-05-16T20:23:47.619Z,5.68
2023-05-16T20:26:14.975Z,2.72
2023-05-16T20:28:41.610Z,4.18
2023-05-16T20:31:08.159Z,8.77
2023-05-16T20:33:34.561Z,4.97
2023-05-16T20:36:01.435Z,4.85
2023-05-16T20:38:27.891Z,9.07
2023-05-16T20:40:54.245Z,6.95
2023-05-16T20:43:20.663Z,9.45
2023-05-16T20:45:47.008Z,8.77
2023-05-16T20:48:14.081Z,7.80
2023-05-16T20:50:40.649Z,8.00
2023-05-16T20:53:07.103Z,10.25
2023-05-16T20:55:33.494Z,6.63
2023-05-16T20:58:00.598Z,7.75
2023-05-16T21:00:26.989Z,7.93
2023-05-16T21:02:53.353Z,7.18
2023-05-16T21:05:35.110Z,5.25
2023-05-16T21:08:01.509Z,4.68
2023-05-16T21:10:27.856Z,7.35
2023-05-16T21:12:54.193Z,7.18
2023-05-16T21:15:23.348Z,5.82
2023-05-16T21:17:50.094Z,7.45
2023-05-16T21:20:16.668Z,7.57
2023-05-16T21:22:43.131Z,4.22
2023-05-16T21:25:09.596Z,7.68
2023-05-16T21:27:35.985Z,8.07
2023-05-16T21:30:02.390Z,6.57
2023-05-16T21:32:32.394Z,8.35
2023-05-16T21:35:00.879Z,7.25
2023-05-16T21:37:27.290Z,8.07
2023-05-16T21:39:53.616Z,8.80
2023-05-16T21:42:21.073Z,9.02
2023-05-16T21:44:47.421Z,7.32
2023-05-16T21:47:13.753Z,7.43
2023-05-16T21:49:40.270Z,8.07
2023-05-16T21:52:07.539Z,9.48
2023-05-16T21:54:34.328Z,5.65
2023-05-16T21:57:03.563Z,6.35
2023-05-16T21:59:29.934Z,4.15
2023-05-16T22:01:56.276Z,3.13
2023-05-16T22:04:23.670Z,3.08
2023-05-16T22:06:50.303Z,3.10
2023-05-16T22:09:16.640Z,2.60
2023-05-16T22:11:43.020Z,2.70
2023-05-16T22:14:09.384Z,3.17
2023-05-16T22:16:35.836Z,2.40
2023-05-16T22:19:03.230Z,2.90
2023-05-16T22:21:29.677Z,3.10
2023-05-16T22:23:56.017Z,2.95
2023-05-16T22:26:22.399Z,2.38
2023-05-16T22:28:48.718Z,2.97
2023-05-16T22:31:15.111Z,3.05
2023-05-16T22:33:41.512Z,2.33
2023-05-16T22:36:08.001Z,2.53
2023-05-16T22:38:34.618Z,2.67
2023-05-16T22:41:00.950Z,3.35
2023-05-16T22:43:27.306Z,3.08
2023-05-16T22:45:53.719Z,2.80
2023-05-16T22:48:20.080Z,3.53
2023-05-16T22:50:46.458Z,2.42
2023-05-16T22:53:12.792Z,3.47
2023-05-16T22:55:39.131Z,3.20
2023-05-16T22:58:05.950Z,3.90
2023-05-16T23:00:32.423Z,3.38
2023-05-16T23:02:58.816Z,3.85
2023-05-16T23:05:25.319Z,3.88
2023-05-16T23:07:51.698Z,3.00
2023-05-16T23:10:18.052Z,3.63
2023-05-16T23:12:44.376Z,2.88
2023-05-16T23:15:11.073Z,3.90
2023-05-16T23:17:40.676Z,2.83
2023-05-16T23:20:07.531Z,3.28
2023-05-16T23:22:33.976Z,3.38
2023-05-16T23:25:00.419Z,2.72
2023-05-16T23:27:26.758Z,3.17
2023-05-16T23:29:53.280Z,3.20
2023-05-16T23:32:19.817Z,3.47
2023-05-16T23:34:46.267Z,3.50
2023-05-16T23:37:12.599Z,3.38
2023-05-16T23:39:38.960Z,2.95
2023-05-16T23:42:05.517Z,3.28
2023-05-16T23:44:33.423Z,3.13
2023-05-16T23:47:00.536Z,2.53
2023-05-16T23:49:26.933Z,2.42
2023-05-16T23:51:57.900Z,2.55
2023-05-16T23:54:25.433Z,2.70
2023-05-16T23:56:51.965Z,3.42
2023-05-16T23:59:19.132Z,3.28
